createdAt,value
2018-11-12T00:00:36.510Z,11.70
2018-11-12T00:03:11.399Z,11.70
2018-11-12T00:05:47.100Z,11.60
2018-11-12T00:08:22.217Z,11.60
2018-11-12T00:10:57.320Z,11.60
2018-11-12T00:13:32.825Z,11.50
2018-11-12T00:16:08.241Z,11.40
2018-11-12T00:18:43.290Z,11.40
2018-11-12T00:21:17.997Z,11.50
2018-11-12T00:23:52.711Z,11.40
2018-11-12T00:26:27.482Z,11.50
2018-11-12T00:29:02.405Z,11.40
2018-11-12T00:31:37.534Z,10.80
2018-11-12T00:34:12.577Z,10.40
2018-11-12T00:36:48.368Z,10.50
2018-11-12T00:39:23.036Z,10.60
2018-11-12T00:41:57.958Z,10.60
2018-11-12T00:44:32.861Z,10.60
2018-11-12T00:47:07.645Z,10.60
2018-11-12T00:49:42.742Z,10.60
2018-11-12T00:52:18.416Z,10.60
2018-11-12T00:54:53.530Z,10.50
2018-11-12T00:57:28.807Z,10.40
2018-11-12T01:00:04.123Z,10.00
2018-11-12T01:02:40.470Z,10.10
2018-11-12T01:05:16.108Z,10.10
2018-11-12T01:07:51.489Z,10.20
2018-11-12T01:10:26.609Z,10.20
2018-11-12T01:13:01.722Z,10.10
2018-11-12T01:15:36.371Z,10.20
2018-11-12T01:18:11.798Z,10.20
2018-11-12T01:20:46.538Z,10.30
2018-11-12T01:23:21.368Z,10.30
2018-11-12T01:25:56.277Z,10.30
2018-11-12T01:28:31.609Z,10.30
2018-11-12T01:31:07.097Z,10.30
2018-11-12T01:33:42.310Z,10.20
2018-11-12T01:36:17.051Z,10.10
2018-11-12T01:38:52.047Z,10.00
2018-11-12T01:41:26.937Z,10.00
2018-11-12T01:44:01.672Z,9.80
2018-11-12T01:46:36.402Z,9.70
2018-11-12T01:49:11.150Z,9.70
2018-11-12T01:51:46.193Z,9.70
2018-11-12T01:54:20.966Z,9.60
2018-11-12T01:56:56.650Z,9.60
2018-11-12T01:59:31.533Z,9.60
2018-11-12T02:02:06.859Z,9.50
2018-11-12T02:04:42.596Z,9.30
2018-11-12T02:07:17.545Z,9.30
2018-11-12T02:09:52.317Z,9.30
2018-11-12T02:12:27.551Z,9.30
2018-11-12T02:15:02.359Z,9.10
2018-11-12T02:17:37.530Z,9.10
2018-11-12T02:20:13.394Z,9.10
2018-11-12T02:22:49.041Z,8.50
2018-11-12T02:25:26.786Z,8.70
2018-11-12T02:28:01.581Z,8.80
2018-11-12T02:30:41.567Z,8.60
2018-11-12T02:33:17.702Z,8.70
2018-11-12T02:35:52.667Z,8.70
2018-11-12T02:38:28.479Z,8.10
2018-11-12T02:41:03.392Z,8.40
2018-11-12T02:43:38.271Z,8.50
2018-11-12T02:46:13.724Z,8.40
2018-11-12T02:48:48.754Z,8.50
2018-11-12T02:51:23.366Z,8.40
2018-11-12T02:53:58.298Z,8.40
2018-11-12T02:56:33.673Z,8.40
2018-11-12T02:59:08.364Z,8.40
2018-11-12T03:01:43.361Z,8.40
2018-11-12T03:04:18.244Z,8.30
2018-11-12T03:06:53.883Z,8.30
2018-11-12T03:09:29.298Z,8.20
2018-11-12T03:12:04.117Z,8.20
2018-11-12T03:14:39.013Z,8.10
2018-11-12T03:17:13.897Z,8.10
2018-11-12T03:19:49.423Z,8.00
2018-11-12T03:22:24.305Z,8.00
2018-11-12T03:25:00.262Z,7.80
2018-11-12T03:27:35.199Z,7.80
2018-11-12T03:30:13.722Z,7.80
2018-11-12T03:32:49.593Z,7.70
2018-11-12T03:35:25.381Z,7.50
2018-11-12T03:38:01.094Z,7.50
2018-11-12T03:40:36.080Z,7.70
2018-11-12T03:43:11.179Z,7.60
2018-11-12T03:45:45.838Z,7.60
2018-11-12T03:48:21.337Z,7.60
2018-11-12T03:50:56.190Z,7.50
2018-11-12T03:53:31.749Z,7.30
2018-11-12T03:56:07.699Z,7.40
2018-11-12T03:58:42.545Z,7.40
2018-11-12T04:01:17.606Z,7.40
2018-11-12T04:03:52.369Z,7.40
2018-11-12T04:06:27.365Z,7.40
2018-11-12T04:09:02.233Z,7.50
2018-11-12T04:11:37.900Z,7.30
2018-11-12T04:14:13.309Z,7.20
2018-11-12T04:16:48.077Z,7.10
2018-11-12T04:19:22.799Z,7.10
2018-11-12T04:21:57.740Z,7.20
2018-11-12T04:24:33.149Z,7.20
2018-11-12T04:27:08.198Z,7.10
2018-11-12T04:29:43.731Z,7.10
2018-11-12T04:32:19.294Z,6.90
2018-11-12T04:34:54.202Z,7.00
2018-11-12T04:37:29.322Z,6.90
2018-11-12T04:40:04.385Z,7.00
2018-11-12T04:42:39.810Z,6.50
2018-11-12T04:45:20.000Z,6.90
2018-11-12T04:47:55.516Z,6.90
2018-11-12T04:50:30.565Z,6.90
2018-11-12T04:53:06.191Z,6.90
2018-11-12T04:55:40.913Z,6.80
2018-11-12T04:58:15.847Z,6.90
2018-11-12T05:00:50.629Z,6.90
2018-11-12T05:03:26.030Z,6.90
2018-11-12T05:06:00.870Z,6.80
2018-11-12T05:08:35.797Z,6.70
2018-11-12T05:11:11.014Z,6.80
2018-11-12T05:13:45.825Z,6.70
2018-11-12T05:16:21.131Z,6.70
2018-11-12T05:18:56.733Z,6.60
2018-11-12T05:21:33.698Z,6.60
2018-11-12T05:24:08.797Z,6.60
2018-11-12T05:26:43.476Z,6.70
2018-11-12T05:29:18.363Z,6.60
2018-11-12T05:31:53.853Z,6.70
2018-11-12T05:34:28.682Z,6.80
2018-11-12T05:37:04.050Z,6.80
2018-11-12T05:39:39.573Z,6.80
2018-11-12T05:42:14.236Z,6.90
2018-11-12T05:44:49.501Z,6.70
2018-11-12T05:47:24.437Z,6.80
2018-11-12T05:50:00.183Z,6.90
2018-11-12T05:52:35.194Z,6.80
2018-11-12T05:55:11.655Z,6.70
2018-11-12T05:57:47.461Z,6.80
2018-11-12T06:00:24.766Z,6.70
2018-11-12T06:03:00.494Z,6.80
2018-11-12T06:05:35.655Z,6.70
2018-11-12T06:08:10.645Z,6.70
2018-11-12T06:10:45.522Z,6.70
2018-11-12T06:13:20.262Z,6.60
2018-11-12T06:15:55.128Z,6.60
2018-11-12T06:18:30.011Z,6.70
2018-11-12T06:21:06.060Z,6.70
2018-11-12T06:23:40.903Z,6.70
2018-11-12T06:26:16.266Z,6.60
2018-11-12T06:28:51.300Z,6.70
2018-11-12T06:31:33.623Z,6.70
2018-11-12T06:34:08.339Z,6.80
2018-11-12T06:36:43.424Z,6.80
2018-11-12T06:39:25.629Z,6.80
2018-11-12T06:42:00.502Z,6.90
2018-11-12T06:44:35.626Z,6.90
2018-11-12T06:47:16.942Z,6.90
2018-11-12T06:49:51.859Z,6.80
2018-11-12T06:52:27.459Z,6.80
2018-11-12T06:55:03.089Z,6.80
2018-11-12T06:57:38.085Z,7.20
2018-11-12T07:00:15.524Z,7.60
2018-11-12T07:02:50.598Z,8.00
2018-11-12T07:05:25.849Z,8.30
2018-11-12T07:08:01.078Z,8.40
2018-11-12T07:10:36.482Z,8.60
2018-11-12T07:13:11.193Z,8.90
2018-11-12T07:15:47.428Z,9.20
2018-11-12T07:18:22.745Z,9.50
2018-11-12T07:20:57.386Z,9.70
2018-11-12T07:23:32.912Z,10.10
2018-11-12T07:26:08.014Z,10.10
2018-11-12T07:28:42.978Z,10.60
2018-11-12T07:31:18.803Z,10.70
2018-11-12T07:33:54.513Z,11.30
2018-11-12T07:36:29.558Z,11.70
2018-11-12T07:39:06.302Z,12.20
2018-11-12T07:41:41.135Z,12.50
2018-11-12T07:44:15.761Z,12.70
2018-11-12T07:46:50.767Z,13.20
2018-11-12T07:49:25.868Z,13.30
2018-11-12T07:52:00.632Z,13.30
2018-11-12T07:54:35.389Z,14.00
2018-11-12T07:57:11.132Z,13.50
2018-11-12T07:59:45.889Z,13.80
2018-11-12T08:02:20.698Z,14.40
2018-11-12T08:04:55.598Z,14.10
2018-11-12T08:07:30.687Z,14.60
2018-11-12T08:10:08.250Z,15.50
2018-11-12T08:12:43.905Z,15.60
2018-11-12T08:15:19.882Z,16.20
2018-11-12T08:17:55.056Z,16.80
2018-11-12T08:20:30.294Z,16.50
2018-11-12T08:23:05.838Z,16.40
2018-11-12T08:25:41.959Z,16.60
2018-11-12T08:28:18.299Z,16.80
2018-11-12T08:30:54.224Z,17.70
2018-11-12T08:33:30.561Z,18.30
2018-11-12T08:36:06.925Z,18.80
2018-11-12T08:38:42.621Z,18.20
2018-11-12T08:41:18.725Z,18.50
2018-11-12T08:43:55.179Z,19.70
2018-11-12T08:46:30.385Z,20.30
2018-11-12T08:49:07.096Z,19.50
2018-11-12T08:51:42.702Z,20.00
2018-11-12T08:54:18.127Z,20.20
2018-11-12T08:56:53.636Z,20.60
2018-11-12T08:59:29.170Z,18.80
2018-11-12T09:02:05.282Z,17.50
2018-11-12T09:04:40.626Z,16.90
2018-11-12T09:07:16.889Z,16.80
2018-11-12T09:09:51.970Z,16.90
2018-11-12T09:12:27.493Z,17.40
2018-11-12T09:15:02.849Z,17.70
2018-11-12T09:17:38.793Z,16.70
2018-11-12T09:20:15.879Z,15.60
2018-11-12T09:22:51.101Z,15.60
2018-11-12T09:25:27.146Z,15.20
2018-11-12T09:28:02.468Z,15.00
2018-11-12T09:30:38.124Z,14.80
2018-11-12T09:33:13.326Z,15.60
2018-11-12T09:35:49.322Z,16.60
2018-11-12T09:38:24.489Z,18.00
2018-11-12T09:41:00.050Z,18.00
2018-11-12T09:43:35.553Z,19.40
2018-11-12T09:46:11.084Z,19.20
2018-11-12T09:48:46.580Z,18.80
2018-11-12T09:51:22.587Z,18.20
2018-11-12T09:53:58.867Z,18.20
2018-11-12T09:56:35.114Z,18.70
2018-11-12T09:59:10.828Z,18.60
2018-11-12T10:01:46.935Z,18.70
2018-11-12T10:04:23.334Z,18.00
2018-11-12T10:06:59.163Z,18.20
2018-11-12T10:09:34.500Z,18.30
2018-11-12T10:12:12.115Z,18.40
2018-11-12T10:14:48.130Z,20.10
2018-11-12T10:17:25.411Z,21.10
2018-11-12T10:19:57.362Z,21.30
2018-11-12T10:22:34.322Z,20.70
2018-11-12T10:25:09.631Z,21.30
2018-11-12T10:27:45.897Z,20.60
2018-11-12T10:30:21.266Z,19.90
2018-11-12T10:32:57.678Z,19.70
2018-11-12T10:35:33.134Z,19.40
2018-11-12T10:38:09.795Z,19.30
2018-11-12T10:40:45.280Z,19.10
2018-11-12T10:43:20.667Z,19.30
2018-11-12T10:45:56.161Z,20.50
2018-11-12T10:48:31.594Z,21.50
2018-11-12T10:51:07.177Z,21.50
2018-11-12T10:53:50.041Z,22.90
2018-11-12T10:56:18.296Z,22.70
2018-11-12T10:58:53.674Z,21.90
2018-11-12T11:01:36.127Z,21.30
2018-11-12T11:04:16.619Z,20.80
2018-11-12T11:06:52.394Z,21.40
2018-11-12T11:09:28.301Z,21.40
2018-11-12T11:12:03.701Z,21.30
2018-11-12T11:14:39.190Z,20.30
2018-11-12T11:17:15.239Z,20.40
2018-11-12T11:19:50.809Z,20.20
2018-11-12T11:22:27.311Z,20.00
2018-11-12T11:25:03.389Z,19.70
2018-11-12T11:27:39.961Z,19.50
2018-11-12T11:30:16.539Z,19.20
2018-11-12T11:32:52.434Z,19.00
2018-11-12T11:35:28.042Z,18.80
2018-11-12T11:38:03.977Z,18.60
2018-11-12T11:40:39.420Z,18.20
2018-11-12T11:43:15.058Z,18.00
2018-11-12T11:45:50.403Z,18.00
2018-11-12T11:48:25.955Z,18.10
2018-11-12T11:51:01.967Z,18.30
2018-11-12T11:53:37.735Z,18.40
2018-11-12T11:56:13.168Z,18.50
2018-11-12T11:58:48.462Z,18.70
2018-11-12T12:01:24.995Z,18.50
2018-11-12T12:04:01.391Z,18.30
2018-11-12T12:06:36.742Z,18.20
2018-11-12T12:09:12.367Z,18.00
2018-11-12T12:11:48.072Z,17.60
2018-11-12T12:14:23.242Z,17.50
2018-11-12T12:16:59.288Z,17.70
2018-11-12T12:19:34.988Z,17.90
2018-11-12T12:22:10.278Z,17.90
2018-11-12T12:24:45.931Z,17.90
2018-11-12T12:27:21.794Z,17.90
2018-11-12T12:29:57.410Z,17.90
2018-11-12T12:32:33.597Z,17.80
2018-11-12T12:35:11.175Z,17.90
2018-11-12T12:37:47.149Z,17.80
2018-11-12T12:40:23.358Z,17.80
2018-11-12T12:42:59.438Z,17.80
2018-11-12T12:45:39.538Z,17.60
2018-11-12T12:48:14.933Z,17.60
2018-11-12T12:50:50.483Z,17.70
2018-11-12T12:53:26.613Z,17.70
2018-11-12T12:56:02.014Z,17.70
2018-11-12T12:58:38.418Z,17.60
2018-11-12T13:01:13.724Z,17.70
2018-11-12T13:03:49.151Z,17.80
2018-11-12T13:06:24.794Z,17.90
2018-11-12T13:09:00.997Z,17.70
2018-11-12T13:11:36.518Z,17.60
2018-11-12T13:14:12.227Z,17.80
2018-11-12T13:16:47.774Z,17.90
2018-11-12T13:19:23.126Z,17.90
2018-11-12T13:21:59.191Z,17.70
2018-11-12T13:24:34.768Z,18.00
2018-11-12T13:27:10.214Z,18.20
2018-11-12T13:29:46.255Z,18.60
2018-11-12T13:32:21.808Z,18.60
2018-11-12T13:34:57.276Z,18.60
2018-11-12T13:37:32.753Z,18.70
2018-11-12T13:40:12.618Z,20.60
2018-11-12T13:42:49.906Z,22.20
2018-11-12T13:45:25.754Z,21.10
2018-11-12T13:48:01.179Z,20.10
2018-11-12T13:50:36.454Z,19.60
2018-11-12T13:53:11.907Z,19.30
2018-11-12T13:55:47.566Z,19.00
2018-11-12T13:58:23.052Z,18.90
2018-11-12T14:00:59.214Z,18.70
2018-11-12T14:03:35.059Z,18.80
2018-11-12T14:06:10.446Z,18.70
2018-11-12T14:08:45.854Z,18.60
2018-11-12T14:11:21.282Z,18.50
2018-11-12T14:13:57.863Z,18.30
2018-11-12T14:16:34.629Z,18.00
2018-11-12T14:19:10.706Z,17.90
2018-11-12T14:21:46.135Z,17.80
2018-11-12T14:24:21.759Z,17.80
2018-11-12T14:26:56.981Z,17.80
2018-11-12T14:29:33.075Z,17.70
2018-11-12T14:32:08.579Z,17.70
2018-11-12T14:34:44.080Z,17.70
2018-11-12T14:37:20.177Z,17.50
2018-11-12T14:39:56.232Z,17.50
2018-11-12T14:42:31.566Z,17.50
2018-11-12T14:45:08.711Z,17.40
2018-11-12T14:47:45.186Z,17.40
2018-11-12T14:50:20.664Z,17.30
2018-11-12T14:52:56.066Z,17.30
2018-11-12T14:55:32.551Z,17.20
2018-11-12T14:58:07.860Z,17.10
2018-11-12T15:00:43.451Z,17.10
2018-11-12T15:03:19.378Z,16.80
2018-11-12T15:05:54.646Z,16.90
2018-11-12T15:08:30.088Z,16.90
2018-11-12T15:11:05.235Z,16.90
2018-11-12T15:13:40.561Z,16.90
2018-11-12T15:16:15.352Z,16.80
2018-11-12T15:18:50.703Z,16.70
2018-11-12T15:21:25.470Z,16.60
2018-11-12T15:24:00.887Z,16.50
2018-11-12T15:26:35.852Z,16.40
2018-11-12T15:29:11.198Z,16.40
2018-11-12T15:31:46.732Z,16.30
2018-11-12T15:34:21.628Z,16.20
2018-11-12T15:36:56.456Z,16.20
2018-11-12T15:39:31.497Z,16.10
2018-11-12T15:42:06.547Z,16.00
2018-11-12T15:44:41.311Z,16.00
2018-11-12T15:47:16.118Z,15.90
2018-11-12T15:49:51.245Z,15.90
2018-11-12T15:52:26.193Z,15.80
2018-11-12T15:55:01.458Z,15.70
2018-11-12T15:57:36.188Z,15.60
2018-11-12T16:00:13.949Z,15.60
2018-11-12T16:02:48.658Z,15.50
2018-11-12T16:05:23.549Z,15.40
2018-11-12T16:07:58.294Z,15.30
2018-11-12T16:10:33.840Z,15.20
2018-11-12T16:13:09.342Z,15.20
2018-11-12T16:15:44.547Z,15.10
2018-11-12T16:18:19.216Z,15.00
2018-11-12T16:20:53.990Z,14.90
2018-11-12T16:23:28.746Z,14.70
2018-11-12T16:26:04.138Z,14.70
2018-11-12T16:28:38.920Z,14.70
2018-11-12T16:31:13.654Z,14.60
2018-11-12T16:33:48.614Z,14.50
2018-11-12T16:36:23.623Z,14.50
2018-11-12T16:38:58.600Z,14.30
2018-11-12T16:41:33.515Z,14.20
2018-11-12T16:44:09.096Z,14.20
2018-11-12T16:46:43.785Z,14.20
2018-11-12T16:49:18.546Z,14.10
2018-11-12T16:51:54.334Z,14.10
2018-11-12T16:54:30.941Z,14.20
2018-11-12T16:57:06.167Z,14.20
2018-11-12T16:59:41.828Z,14.20
2018-11-12T17:02:16.783Z,14.10
2018-11-12T17:04:51.916Z,14.10
2018-11-12T17:07:26.719Z,14.00
2018-11-12T17:10:01.715Z,13.80
2018-11-12T17:12:36.870Z,13.70
2018-11-12T17:15:12.828Z,13.80
2018-11-12T17:17:48.367Z,13.70
2018-11-12T17:20:23.281Z,13.70
2018-11-12T17:22:58.713Z,13.50
2018-11-12T17:25:34.606Z,13.60
2018-11-12T17:28:09.557Z,13.50
2018-11-12T17:30:44.756Z,13.50
2018-11-12T17:33:20.086Z,13.30
2018-11-12T17:35:55.401Z,13.10
2018-11-12T17:38:30.556Z,13.20
2018-11-12T17:41:06.306Z,13.30
2018-11-12T17:43:45.000Z,13.20
2018-11-12T17:46:19.807Z,13.10
2018-11-12T17:48:54.832Z,13.10
2018-11-12T17:51:29.964Z,13.20
2018-11-12T17:54:05.508Z,13.30
2018-11-12T17:56:40.394Z,13.20
2018-11-12T17:59:15.226Z,13.10
2018-11-12T18:01:50.173Z,13.00
2018-11-12T18:04:25.735Z,13.10
2018-11-12T18:07:00.656Z,13.00
2018-11-12T18:09:35.531Z,13.00
2018-11-12T18:12:11.611Z,12.80
2018-11-12T18:14:46.554Z,13.10
2018-11-12T18:17:22.163Z,13.10
2018-11-12T18:19:57.197Z,13.10
2018-11-12T18:22:32.337Z,13.00
2018-11-12T18:25:07.380Z,13.00
2018-11-12T18:27:42.889Z,13.10
2018-11-12T18:30:21.284Z,13.10
2018-11-12T18:32:57.536Z,13.10
2018-11-12T18:35:32.294Z,13.10
2018-11-12T18:38:07.420Z,13.00
2018-11-12T18:40:43.144Z,13.10
2018-11-12T18:43:18.363Z,13.10
2018-11-12T18:45:53.333Z,13.10
2018-11-12T18:48:28.340Z,13.10
2018-11-12T18:51:03.299Z,13.00
2018-11-12T18:53:38.798Z,13.10
2018-11-12T18:56:13.619Z,13.10
2018-11-12T18:58:48.544Z,13.00
2018-11-12T19:01:23.991Z,13.20
2018-11-12T19:03:58.838Z,13.40
2018-11-12T19:06:33.695Z,13.60
2018-11-12T19:09:10.414Z,13.70
2018-11-12T19:11:45.511Z,13.60
2018-11-12T19:14:20.386Z,13.60
2018-11-12T19:16:55.642Z,13.60
2018-11-12T19:19:30.327Z,13.50
2018-11-12T19:22:05.873Z,13.70
2018-11-12T19:24:40.627Z,13.90
2018-11-12T19:27:22.349Z,14.00
2018-11-12T19:29:57.904Z,14.20
2018-11-12T19:32:32.879Z,14.20
2018-11-12T19:35:09.297Z,14.60
2018-11-12T19:37:44.127Z,14.50
2018-11-12T19:40:21.155Z,14.60
2018-11-12T19:42:56.861Z,14.50
2018-11-12T19:45:31.766Z,14.50
2018-11-12T19:48:07.438Z,14.40
2018-11-12T19:50:42.966Z,14.40
2018-11-12T19:53:18.211Z,14.50
2018-11-12T19:55:53.676Z,14.20
2018-11-12T19:58:29.133Z,14.30
2018-11-12T20:01:03.815Z,14.40
2018-11-12T20:03:38.833Z,14.30
2018-11-12T20:06:13.884Z,14.20
2018-11-12T20:08:48.766Z,14.20
2018-11-12T20:11:24.120Z,14.10
2018-11-12T20:13:59.488Z,14.10
2018-11-12T20:16:34.595Z,13.90
2018-11-12T20:19:09.388Z,14.00
2018-11-12T20:21:44.345Z,13.90
2018-11-12T20:24:19.391Z,13.80
2018-11-12T20:26:54.518Z,13.80
2018-11-12T20:29:30.276Z,13.80
2018-11-12T20:32:06.513Z,13.80
2018-11-12T20:34:41.331Z,13.80
2018-11-12T20:37:16.407Z,13.70
2018-11-12T20:39:54.764Z,13.70
2018-11-12T20:42:29.903Z,13.70
2018-11-12T20:45:05.824Z,13.60
2018-11-12T20:47:42.360Z,13.60
2018-11-12T20:50:23.940Z,13.40
2018-11-12T20:52:58.839Z,13.50
2018-11-12T20:55:34.029Z,13.50
2018-11-12T20:58:09.211Z,13.30
2018-11-12T21:00:44.643Z,13.40
2018-11-12T21:03:19.550Z,13.40
2018-11-12T21:05:54.553Z,13.40
2018-11-12T21:08:29.839Z,13.40
2018-11-12T21:11:04.896Z,13.40
2018-11-12T21:13:39.937Z,13.40
2018-11-12T21:16:14.812Z,13.20
2018-11-12T21:18:49.955Z,13.30
2018-11-12T21:21:24.954Z,13.30
2018-11-12T21:24:00.479Z,13.40
2018-11-12T21:26:35.681Z,13.30
2018-11-12T21:29:11.357Z,13.20
2018-11-12T21:31:46.451Z,13.10
2018-11-12T21:34:21.451Z,13.20
2018-11-12T21:36:56.400Z,13.20
2018-11-12T21:39:38.129Z,13.20
2018-11-12T21:42:13.325Z,13.20
2018-11-12T21:44:48.951Z,13.10
2018-11-12T21:47:23.617Z,13.20
2018-11-12T21:49:58.554Z,13.10
2018-11-12T21:52:33.842Z,13.20
2018-11-12T21:55:10.238Z,13.20
2018-11-12T21:57:45.792Z,13.20
2018-11-12T22:00:28.485Z,13.10
2018-11-12T22:03:04.559Z,13.20
2018-11-12T22:05:39.575Z,13.20
2018-11-12T22:08:15.362Z,13.10
2018-11-12T22:10:50.485Z,13.10
2018-11-12T22:13:25.281Z,13.10
2018-11-12T22:16:00.800Z,13.10
2018-11-12T22:18:35.825Z,13.10
2018-11-12T22:21:10.997Z,13.20
2018-11-12T22:23:46.448Z,13.10
2018-11-12T22:26:22.809Z,13.20
2018-11-12T22:28:57.613Z,13.20
2018-11-12T22:31:33.043Z,13.10
2018-11-12T22:34:07.963Z,13.10
2018-11-12T22:36:43.084Z,13.10
2018-11-12T22:39:18.003Z,13.10
2018-11-12T22:41:53.120Z,13.10
2018-11-12T22:44:27.979Z,13.10
2018-11-12T22:47:02.896Z,13.10
2018-11-12T22:49:37.986Z,13.10
2018-11-12T22:52:13.197Z,12.80
2018-11-12T22:54:47.964Z,13.00
2018-11-12T22:57:25.556Z,13.00
2018-11-12T23:00:00.619Z,13.00
2018-11-12T23:02:35.383Z,12.80
2018-11-12T23:05:11.237Z,12.80
2018-11-12T23:07:53.540Z,12.60
2018-11-12T23:10:28.746Z,12.70
2018-11-12T23:13:03.551Z,12.50
2018-11-12T23:15:38.595Z,12.60
2018-11-12T23:18:13.735Z,12.70
2018-11-12T23:20:48.875Z,12.60
2018-11-12T23:23:23.654Z,12.70
2018-11-12T23:25:58.347Z,12.80
2018-11-12T23:28:33.483Z,12.80
2018-11-12T23:31:08.226Z,12.80
2018-11-12T23:33:43.127Z,12.80
2018-11-12T23:36:17.950Z,12.80
2018-11-12T23:38:53.341Z,12.90
2018-11-12T23:41:28.130Z,12.90
2018-11-12T23:44:02.876Z,12.80
2018-11-12T23:46:38.032Z,12.90
2018-11-12T23:49:13.196Z,12.80
2018-11-12T23:51:48.001Z,12.80
2018-11-12T23:54:23.888Z,12.80
2018-11-12T23:56:58.942Z,12.70
2018-11-12T23:59:33.702Z,12.30
